Saint Marys, Maryland
Current Conditions -  °F | °C
As of 4:53 AM on Saturday 25 Oct 2014 (Local Time) from KNUI Reporting Station
Clear Clear  
Wind Chill: 52°   Ceiling: Unl
Heat Index: 52°   Visibility: 10mi
Dew Point: 37°   Wind: 3mph
Humidity: 57%   Direction: 330°NNW
Pressure: 29.94"   Gusts: NA
Location:  38.1867°N, 76.4348°W
Report Text: KNUI 250853Z AUTO 33003KT 10SM CLR 11/03 A2994 RMK AO2 SLP139 T01110028 53000 $
Loading
Personal Weather Stations






























Interactive Weather Map
Tropical Storm Tracking
New forecast layout! Learn more

10-Day Weather Forecast

Advertisements
Track Severe Weather on mobile